CYMH

Details ICAO CYMH (YMH)
Name Marys Harbour
Region Canada
Timezone America/St_Johns (UTC-3.5)
Plans Departing 8
Arriving 10
Stats Elevation 38 ft / 12 m (AMSL)
Location 52.302250° -55.845423°
Runways 1
Magnetic Variation 20.304° W
Sunrise 2017-12-14 11:47:25 UTC / 2017-12-14 08:17:25 Local
Sunset 2017-12-14 19:31:39 UTC / 2017-12-14 16:01:39 Local
Advertisement - Login to hide

Runways

ID Width Length Bearing (true) Bearing (mag) Surface Threshold Offset Overrun Length
11 98 ft / 30 m 2,549 ft / 777 m 85.00° 105.30° Gravel 0 ft / 0 m 0 ft / 0 m
29 98 ft / 30 m 2,549 ft / 777 m 265.01° 285.31° Gravel 0 ft / 0 m 0 ft / 0 m

Map

Weather


0- 5 10 15 20 25 30 35+ Temperature / ° C

Clouds and Precipitation
Forecast for 2017-12-14 12:00 UTC. Updated an hour ago

Ground ~20,000 ft ~40,000 ft Winds

METAR

CYMH 141027Z AUTO 20010G15KT 9SM -RA SCT047 BKN060 OVC070 03/02 A2868 RMK SLP713

TAF

TAF CYMH 140139Z 1402/1404 12020G35KT 11/2SM -RA BR OVC005 TEMPO 1402/1404 3SM -RA BR OVC010 RMK FCST BASED ON AUTO OBS. NXT FCST WILL BE ISSUED AT 140945Z

Frequencies

Recorded 122.55 MHz Marys Harbour AWOS
Unicom 122.80 MHz Marys Harbour Traffic Multicom
Warning: Do not use this data for real-world aviation or navigation. No guarantee of current accuracy is given.